Time;durP1;ratioP1;P1;durP2;ratioP2;P2;SDS_P1;SDS_P2;PMS_P1;PMS_P2;Temp;Humidity;BMP_temperature;BMP_pressure;BME280_temperature;BME280_humidity;BME280_pressure;Samples;Min_cycle;Max_cycle;Signal;HPM_P1;HPM_P2
2022/05/05 00:02:24;;;;;;;5.90;4.07;;;;;;;;;;5091657;28;20191;-57
2022/05/05 00:04:51;;;;;;;9.37;3.60;;;;;;;;;;5091421;28;20722;-56
2022/05/05 00:07:19;;;;;;;8.87;4.50;;;;;;;;;;5091442;28;20198;-57
2022/05/05 00:09:45;;;;;;;7.67;3.87;;;;;;;;;;5091621;28;20313;-57
2022/05/05 00:14:57;;;;;;;5.80;4.00;;;;;;;;;;5091532;28;20201;-55
2022/05/05 00:17:25;;;;;;;8.17;4.30;;;;;;;;;;5091420;28;20203;-55
2022/05/05 00:19:51;;;;;;;5.57;3.90;;;;;;;;;;5091537;28;20206;-55
2022/05/05 00:22:16;;;;;;;6.67;4.67;;;;;;;;;;5091483;28;20199;-56
2022/05/05 00:24:42;;;;;;;4.80;4.00;;;;;;;;;;5091449;28;20275;-57
2022/05/05 00:27:08;;;;;;;4.03;3.43;;;;;;;;;;5091127;28;20214;-56
2022/05/05 00:29:36;;;;;;;5.80;3.87;;;;;;;;;;5091411;28;20211;-55
2022/05/05 00:32:02;;;;;;;4.67;3.63;;;;;;;;;;5091422;28;20222;-55
2022/05/05 00:34:28;;;;;;;7.73;4.33;;;;;;;;;;5091269;28;20649;-55
2022/05/05 00:36:54;;;;;;;5.23;3.90;;;;;;;;;;5091236;28;20274;-57
2022/05/05 00:39:20;;;;;;;6.87;4.20;;;;;;;;;;5091357;28;20218;-55
2022/05/05 00:41:47;;;;;;;4.47;4.00;;;;;;;;;;5091254;28;20238;-56
2022/05/05 00:44:14;;;;;;;5.77;4.00;;;;;;;;;;5091131;28;20226;-55
2022/05/05 00:46:48;;;;;;;5.37;3.77;;;;;;;;;;5091180;28;20665;-55
2022/05/05 00:49:14;;;;;;;6.53;4.67;;;;;;;;;;5091199;28;20490;-55
2022/05/05 00:51:41;;;;;;;6.27;4.07;;;;;;;;;;5094630;28;20199;-56
2022/05/05 00:54:07;;;;;;;4.30;3.90;;;;;;;;;;5094664;28;20841;-55
2022/05/05 00:56:34;;;;;;;4.80;4.10;;;;;;;;;;5094750;28;20479;-55
2022/05/05 00:59:01;;;;;;;6.83;4.13;;;;;;;;;;5094715;28;20201;-55
2022/05/05 01:01:27;;;;;;;8.77;4.13;;;;;;;;;;5094666;28;20244;-55
2022/05/05 01:03:54;;;;;;;9.40;4.83;;;;;;;;;;5094575;28;20665;-55
2022/05/05 01:06:20;;;;;;;9.33;4.43;;;;;;;;;;5094399;28;20484;-55
2022/05/05 01:08:46;;;;;;;6.17;4.70;;;;;;;;;;5094664;28;20429;-55
2022/05/05 01:11:12;;;;;;;9.07;4.37;;;;;;;;;;5094557;28;20704;-56
2022/05/05 01:13:39;;;;;;;7.80;3.97;;;;;;;;;;5094341;28;20195;-55
2022/05/05 01:16:05;;;;;;;8.23;4.40;;;;;;;;;;5094108;28;20257;-55
2022/05/05 01:18:31;;;;;;;8.83;4.87;;;;;;;;;;5094368;28;20530;-55
2022/05/05 01:20:59;;;;;;;7.30;4.63;;;;;;;;;;5094419;28;20935;-56
2022/05/05 01:23:26;;;;;;;6.33;4.93;;;;;;;;;;5094501;28;20257;-56
2022/05/05 01:28:39;;;;;;;6.67;4.73;;;;;;;;;;5094391;28;20198;-56
2022/05/05 01:31:07;;;;;;;5.97;4.90;;;;;;;;;;5094144;28;20783;-56
2022/05/05 01:33:34;;;;;;;5.13;4.63;;;;;;;;;;5094344;28;20498;-55
2022/05/05 01:36:00;;;;;;;5.63;4.30;;;;;;;;;;5094257;28;20769;-56
2022/05/05 01:38:35;;;;;;;7.63;4.50;;;;;;;;;;5093683;28;20803;-56
2022/05/05 01:41:02;;;;;;;8.73;4.70;;;;;;;;;;5094001;28;20444;-56
2022/05/05 01:43:27;;;;;;;6.80;4.63;;;;;;;;;;5094173;28;20856;-56
2022/05/05 01:45:53;;;;;;;7.13;5.27;;;;;;;;;;5093930;28;20499;-56
2022/05/05 01:48:19;;;;;;;5.93;4.83;;;;;;;;;;5093689;28;20321;-56
2022/05/05 01:50:48;;;;;;;5.87;4.40;;;;;;;;;;5093884;28;20202;-56
2022/05/05 01:53:14;;;;;;;6.00;4.97;;;;;;;;;;5093696;28;20207;-56
2022/05/05 01:55:42;;;;;;;6.70;5.00;;;;;;;;;;5093767;28;20923;-56
2022/05/05 01:58:08;;;;;;;6.43;4.70;;;;;;;;;;5093426;28;20909;-56
2022/05/05 02:00:34;;;;;;;7.40;5.47;;;;;;;;;;5093615;28;20808;-56
2022/05/05 02:03:01;;;;;;;6.73;4.80;;;;;;;;;;5092847;28;20436;-56
2022/05/05 02:05:27;;;;;;;7.33;5.00;;;;;;;;;;5093536;28;20517;-56
2022/05/05 02:07:53;;;;;;;6.60;4.73;;;;;;;;;;5093396;28;20875;-56
2022/05/05 02:10:24;;;;;;;5.67;4.47;;;;;;;;;;5093295;28;20191;-56
2022/05/05 02:12:57;;;;;;;9.40;5.37;;;;;;;;;;5093295;28;20421;-56
2022/05/05 02:15:23;;;;;;;5.67;4.60;;;;;;;;;;5093308;28;20469;-56
2022/05/05 02:17:50;;;;;;;7.27;5.23;;;;;;;;;;5093241;28;20437;-55
2022/05/05 02:20:16;;;;;;;6.20;5.10;;;;;;;;;;5093205;28;20195;-56
2022/05/05 02:22:42;;;;;;;7.47;5.10;;;;;;;;;;5093200;28;20437;-56
2022/05/05 02:25:09;;;;;;;8.07;4.80;;;;;;;;;;5092805;28;20290;-57
2022/05/05 02:27:48;;;;;;;9.33;5.60;;;;;;;;;;5092947;28;20191;-57
2022/05/05 02:30:16;;;;;;;5.40;4.90;;;;;;;;;;5093028;28;20483;-57
2022/05/05 02:32:42;;;;;;;5.50;4.80;;;;;;;;;;5093026;28;20433;-57
2022/05/05 02:35:08;;;;;;;8.10;5.77;;;;;;;;;;5092862;28;20802;-55
2022/05/05 02:40:19;;;;;;;5.90;5.23;;;;;;;;;;5093217;28;20462;-57
2022/05/05 02:42:45;;;;;;;7.20;5.57;;;;;;;;;;5092992;28;20480;-57
2022/05/05 02:45:11;;;;;;;10.87;5.07;;;;;;;;;;5092782;28;20480;-57
2022/05/05 02:47:38;;;;;;;8.13;5.07;;;;;;;;;;5092564;28;20199;-57
2022/05/05 02:50:04;;;;;;;5.97;5.27;;;;;;;;;;5092524;28;20199;-57
2022/05/05 02:52:30;;;;;;;6.63;5.30;;;;;;;;;;5092731;28;20467;-57
2022/05/05 02:54:56;;;;;;;8.17;5.80;;;;;;;;;;5092566;28;20433;-57
2022/05/05 02:57:23;;;;;;;5.80;4.83;;;;;;;;;;5092392;28;20370;-57
2022/05/05 02:59:49;;;;;;;8.63;5.67;;;;;;;;;;5092573;28;20241;-57
2022/05/05 03:02:15;;;;;;;6.47;5.00;;;;;;;;;;5092356;28;20449;-57
2022/05/05 03:04:43;;;;;;;7.73;4.90;;;;;;;;;;5092303;28;20519;-57
2022/05/05 03:07:09;;;;;;;8.93;5.20;;;;;;;;;;5092376;28;20646;-57
2022/05/05 03:09:35;;;;;;;7.37;4.97;;;;;;;;;;5092286;28;20441;-57
2022/05/05 03:12:01;;;;;;;7.60;5.70;;;;;;;;;;5092112;28;20877;-56
2022/05/05 03:14:27;;;;;;;8.00;5.57;;;;;;;;;;5091337;28;20532;-57
2022/05/05 03:16:53;;;;;;;7.00;6.30;;;;;;;;;;5091947;28;20241;-57
2022/05/05 03:19:19;;;;;;;10.67;5.93;;;;;;;;;;5092062;28;20508;-57
2022/05/05 03:21:46;;;;;;;8.63;5.67;;;;;;;;;;5092198;28;20627;-57
2022/05/05 03:24:12;;;;;;;6.37;5.63;;;;;;;;;;5092074;28;20219;-57
2022/05/05 03:26:38;;;;;;;8.23;5.37;;;;;;;;;;5091885;28;20499;-57
2022/05/05 03:29:04;;;;;;;7.53;5.17;;;;;;;;;;5092070;28;20198;-57
2022/05/05 03:31:31;;;;;;;5.73;5.13;;;;;;;;;;5092139;28;20443;-57
2022/05/05 03:33:57;;;;;;;8.33;6.00;;;;;;;;;;5092053;28;20524;-57
2022/05/05 03:36:23;;;;;;;10.40;5.93;;;;;;;;;;5091785;28;20591;-57
2022/05/05 03:38:51;;;;;;;6.03;5.43;;;;;;;;;;5091879;28;20660;-57
2022/05/05 03:41:17;;;;;;;9.07;5.53;;;;;;;;;;5091810;28;20448;-56
2022/05/05 03:43:43;;;;;;;5.67;5.13;;;;;;;;;;5091825;28;20777;-57
2022/05/05 03:46:09;;;;;;;8.33;6.07;;;;;;;;;;5091549;28;20499;-57
2022/05/05 03:48:35;;;;;;;7.30;5.27;;;;;;;;;;5091672;28;20199;-57
2022/05/05 03:51:01;;;;;;;8.07;5.70;;;;;;;;;;5091525;28;20244;-57
2022/05/05 03:53:27;;;;;;;7.53;5.50;;;;;;;;;;5091763;28;20431;-57
2022/05/05 03:55:55;;;;;;;9.03;5.30;;;;;;;;;;5091627;28;20498;-55
2022/05/05 03:58:21;;;;;;;8.33;5.93;;;;;;;;;;5091483;28;20436;-55
2022/05/05 04:00:47;;;;;;;5.80;5.20;;;;;;;;;;5091677;28;20520;-55
2022/05/05 04:03:31;;;;;;;6.73;6.13;;;;;;;;;;5091581;28;20194;-56
2022/05/05 04:05:57;;;;;;;8.47;5.60;;;;;;;;;;5091631;28;20632;-55
2022/05/05 04:08:23;;;;;;;9.30;5.60;;;;;;;;;;5091509;28;20435;-56
2022/05/05 04:10:49;;;;;;;7.77;5.97;;;;;;;;;;5091520;28;20346;-55
2022/05/05 04:13:16;;;;;;;6.30;5.67;;;;;;;;;;5091629;28;20195;-55
2022/05/05 04:15:42;;;;;;;8.80;6.00;;;;;;;;;;5091329;28;20473;-55
2022/05/05 04:18:08;;;;;;;10.10;5.70;;;;;;;;;;5091341;28;20441;-56
2022/05/05 04:20:34;;;;;;;12.20;6.83;;;;;;;;;;5091471;28;20230;-55
2022/05/05 04:23:00;;;;;;;8.33;6.03;;;;;;;;;;5091378;28;20199;-56
2022/05/05 04:25:26;;;;;;;9.10;6.10;;;;;;;;;;5092767;28;20293;-55
2022/05/05 04:27:52;;;;;;;12.03;6.60;;;;;;;;;;5095143;28;20205;-55
2022/05/05 04:30:21;;;;;;;7.57;6.87;;;;;;;;;;5095177;28;20225;-55
2022/05/05 04:32:47;;;;;;;6.97;6.27;;;;;;;;;;5095394;28;20439;-56
2022/05/05 04:35:15;;;;;;;8.07;6.33;;;;;;;;;;5095212;28;20421;-56
2022/05/05 04:37:41;;;;;;;8.97;6.43;;;;;;;;;;5095360;28;20263;-56
2022/05/05 04:40:08;;;;;;;7.20;5.90;;;;;;;;;;5094986;28;20844;-55
2022/05/05 04:42:34;;;;;;;6.97;5.93;;;;;;;;;;5095044;28;20420;-55
2022/05/05 04:45:00;;;;;;;10.60;6.20;;;;;;;;;;5094923;28;20577;-56
2022/05/05 04:47:27;;;;;;;8.47;6.43;;;;;;;;;;5094822;28;20493;-56
2022/05/05 04:49:56;;;;;;;7.23;6.47;;;;;;;;;;5094926;28;20439;-56
2022/05/05 04:52:23;;;;;;;6.97;6.03;;;;;;;;;;5094844;28;20436;-56
2022/05/05 04:54:49;;;;;;;10.00;7.13;;;;;;;;;;5094883;28;20435;-56
2022/05/05 04:57:15;;;;;;;7.40;6.70;;;;;;;;;;5094753;28;20515;-56
2022/05/05 04:59:41;;;;;;;9.60;6.93;;;;;;;;;;5094765;28;20206;-56
2022/05/05 05:02:07;;;;;;;11.33;6.80;;;;;;;;;;5094575;28;20790;-56
2022/05/05 05:04:34;;;;;;;7.13;6.20;;;;;;;;;;5094604;28;20213;-56
2022/05/05 05:07:00;;;;;;;8.17;6.70;;;;;;;;;;5094645;28;20198;-56
2022/05/05 05:09:26;;;;;;;8.37;6.87;;;;;;;;;;5094247;28;20520;-56
2022/05/05 05:11:52;;;;;;;8.07;6.70;;;;;;;;;;5094236;28;20256;-56
2022/05/05 05:14:18;;;;;;;10.97;6.73;;;;;;;;;;5094070;28;20238;-56
2022/05/05 05:16:44;;;;;;;7.50;6.63;;;;;;;;;;5093902;28;20615;-56
2022/05/05 05:19:10;;;;;;;10.33;7.70;;;;;;;;;;5093928;28;20562;-56
2022/05/05 05:21:37;;;;;;;12.67;7.50;;;;;;;;;;5094242;28;20190;-56
2022/05/05 05:24:04;;;;;;;12.40;7.67;;;;;;;;;;5094055;28;20472;-56
2022/05/05 05:26:30;;;;;;;10.57;7.57;;;;;;;;;;5094141;28;20469;-56
2022/05/05 05:28:56;;;;;;;10.57;7.93;;;;;;;;;;5094040;28;20812;-55
2022/05/05 05:31:22;;;;;;;8.53;7.17;;;;;;;;;;5094137;28;20482;-56
2022/05/05 05:33:48;;;;;;;9.43;8.30;;;;;;;;;;5094075;28;20203;-55
2022/05/05 05:36:14;;;;;;;9.37;7.23;;;;;;;;;;5093141;28;20444;-56
2022/05/05 05:38:41;;;;;;;7.87;7.07;;;;;;;;;;5093586;28;20653;-55
2022/05/05 05:41:08;;;;;;;9.93;7.63;;;;;;;;;;5093364;28;20459;-56
2022/05/05 05:43:35;;;;;;;11.90;7.80;;;;;;;;;;5093937;28;20264;-56
2022/05/05 05:46:01;;;;;;;10.73;8.03;;;;;;;;;;5093788;28;20331;-55
2022/05/05 05:48:27;;;;;;;9.60;7.90;;;;;;;;;;5093493;28;20298;-55
2022/05/05 05:50:53;;;;;;;14.73;8.27;;;;;;;;;;5093824;28;20199;-55
2022/05/05 05:53:19;;;;;;;11.53;8.57;;;;;;;;;;5093621;28;20210;-56
2022/05/05 05:55:46;;;;;;;11.37;8.47;;;;;;;;;;5093621;28;20680;-54
2022/05/05 05:58:12;;;;;;;10.67;7.97;;;;;;;;;;5093090;28;20564;-55
2022/05/05 06:00:38;;;;;;;8.47;7.70;;;;;;;;;;5091976;28;20229;-55
2022/05/05 06:05:49;;;;;;;12.13;8.70;;;;;;;;;;5093210;28;20229;-55
2022/05/05 06:08:15;;;;;;;12.63;9.33;;;;;;;;;;5093257;28;20195;-55
2022/05/05 06:10:41;;;;;;;13.13;9.23;;;;;;;;;;5093101;28;20560;-55
2022/05/05 06:13:09;;;;;;;10.30;8.70;;;;;;;;;;5093044;28;20251;-56
2022/05/05 06:15:35;;;;;;;10.10;8.87;;;;;;;;;;5093021;28;20261;-56
2022/05/05 06:18:01;;;;;;;13.73;9.17;;;;;;;;;;5093158;28;20282;-56
2022/05/05 06:20:27;;;;;;;12.23;10.50;;;;;;;;;;5093324;28;20567;-56
2022/05/05 06:22:54;;;;;;;12.03;10.07;;;;;;;;;;5093098;28;20285;-55
2022/05/05 06:25:23;;;;;;;12.63;10.67;;;;;;;;;;5092725;28;20273;-57
2022/05/05 06:27:49;;;;;;;15.83;11.83;;;;;;;;;;5093050;28;20206;-56
2022/05/05 06:30:17;;;;;;;16.73;11.70;;;;;;;;;;5092972;28;20194;-56
2022/05/05 06:32:43;;;;;;;13.80;10.70;;;;;;;;;;5093022;28;20195;-57
2022/05/05 06:35:10;;;;;;;12.50;10.63;;;;;;;;;;5092813;28;20198;-58
2022/05/05 06:37:36;;;;;;;17.53;12.27;;;;;;;;;;5092921;28;20199;-56
2022/05/05 06:40:02;;;;;;;12.60;10.87;;;;;;;;;;5092719;28;20205;-58
2022/05/05 06:42:28;;;;;;;14.50;12.23;;;;;;;;;;5092702;28;20581;-58
2022/05/05 06:44:55;;;;;;;15.27;12.37;;;;;;;;;;5092641;28;20223;-56
2022/05/05 06:47:22;;;;;;;15.77;12.50;;;;;;;;;;5092534;28;20874;-57
2022/05/05 06:49:48;;;;;;;16.83;12.77;;;;;;;;;;5092752;28;20205;-57
2022/05/05 06:52:14;;;;;;;12.13;10.80;;;;;;;;;;5092698;28;20290;-57
2022/05/05 06:54:40;;;;;;;12.77;10.67;;;;;;;;;;5092645;28;20571;-57
2022/05/05 06:57:06;;;;;;;14.17;10.90;;;;;;;;;;5092407;28;20190;-57
2022/05/05 06:59:32;;;;;;;15.00;11.70;;;;;;;;;;5092369;28;20195;-57
2022/05/05 07:02:01;;;;;;;16.53;10.60;;;;;;;;;;5092645;28;20194;-57
2022/05/05 07:07:14;;;;;;;10.67;8.90;;;;;;;;;;5092461;28;20336;-57
2022/05/05 07:12:25;;;;;;;12.30;9.97;;;;;;;;;;5092051;28;20331;-56
2022/05/05 07:14:51;;;;;;;11.87;10.07;;;;;;;;;;5092235;28;20210;-57
2022/05/05 07:17:17;;;;;;;11.33;9.67;;;;;;;;;;5092113;28;20234;-56
2022/05/05 07:19:45;;;;;;;14.33;9.93;;;;;;;;;;5092176;28;20201;-57
2022/05/05 07:22:11;;;;;;;9.63;7.30;;;;;;;;;;5092104;28;20298;-57
2022/05/05 07:24:37;;;;;;;11.63;7.43;;;;;;;;;;5091914;28;20218;-56
2022/05/05 07:27:05;;;;;;;7.70;6.07;;;;;;;;;;5091933;28;20244;-57
2022/05/05 07:29:31;;;;;;;10.97;6.03;;;;;;;;;;5092107;28;20437;-57
2022/05/05 07:31:57;;;;;;;11.27;5.90;;;;;;;;;;5092045;28;20573;-56
2022/05/05 07:34:23;;;;;;;6.83;4.67;;;;;;;;;;5091762;28;20206;-56
2022/05/05 07:36:50;;;;;;;8.83;5.13;;;;;;;;;;5091964;28;20202;-57
2022/05/05 07:39:17;;;;;;;6.60;4.30;;;;;;;;;;5091896;28;20202;-57
2022/05/05 07:41:43;;;;;;;7.77;3.30;;;;;;;;;;5091904;28;20191;-56
2022/05/05 07:44:10;;;;;;;9.37;4.63;;;;;;;;;;5091981;28;20213;-57
2022/05/05 07:46:36;;;;;;;6.47;4.13;;;;;;;;;;5091887;28;20260;-56
2022/05/05 07:49:03;;;;;;;7.13;4.77;;;;;;;;;;5091840;28;20285;-56
2022/05/05 07:51:30;;;;;;;8.13;5.43;;;;;;;;;;5091728;28;20194;-57
2022/05/05 07:56:43;;;;;;;6.83;4.83;;;;;;;;;;5091538;28;20194;-57
2022/05/05 07:59:09;;;;;;;8.93;5.30;;;;;;;;;;5091302;28;20618;-57
2022/05/05 08:01:35;;;;;;;7.50;4.57;;;;;;;;;;5095285;28;20664;-56
2022/05/05 08:04:01;;;;;;;11.87;4.77;;;;;;;;;;5096041;28;20236;-57
2022/05/05 08:06:27;;;;;;;8.07;4.80;;;;;;;;;;5095825;28;20767;-55
2022/05/05 08:08:53;;;;;;;8.90;4.87;;;;;;;;;;5095685;28;20207;-56
2022/05/05 08:11:20;;;;;;;5.50;4.43;;;;;;;;;;5095512;28;20202;-55
2022/05/05 08:13:46;;;;;;;5.27;4.40;;;;;;;;;;5095841;28;20207;-58
2022/05/05 08:16:12;;;;;;;8.13;4.57;;;;;;;;;;5095421;28;20223;-57
2022/05/05 08:18:38;;;;;;;8.60;4.70;;;;;;;;;;5095398;28;20653;-56
2022/05/05 08:21:05;;;;;;;5.50;3.30;;;;;;;;;;5095286;28;20277;-57
2022/05/05 08:23:31;;;;;;;10.47;3.83;;;;;;;;;;5095536;28;20473;-58
2022/05/05 08:28:42;;;;;;;5.03;3.40;;;;;;;;;;5095496;28;20252;-57
2022/05/05 08:31:10;;;;;;;7.90;3.60;;;;;;;;;;5095430;28;20202;-57
2022/05/05 08:33:38;;;;;;;5.50;3.37;;;;;;;;;;5095344;28;20282;-57
2022/05/05 08:36:05;;;;;;;5.10;3.20;;;;;;;;;;5095334;28;20519;-58
2022/05/05 08:38:31;;;;;;;5.87;3.33;;;;;;;;;;5095171;28;20608;-58
2022/05/05 08:40:57;;;;;;;6.43;3.70;;;;;;;;;;5095302;28;20203;-57
2022/05/05 08:43:23;;;;;;;5.50;3.40;;;;;;;;;;5095017;28;20198;-57
2022/05/05 08:45:53;;;;;;;6.13;3.13;;;;;;;;;;5094898;28;20232;-56
2022/05/05 08:48:19;;;;;;;13.27;3.83;;;;;;;;;;5095023;28;20296;-58
2022/05/05 08:50:46;;;;;;;5.90;3.33;;;;;;;;;;5095357;28;20228;-58
2022/05/05 08:53:14;;;;;;;5.23;3.40;;;;;;;;;;5095032;28;20224;-58
2022/05/05 08:55:41;;;;;;;5.43;3.53;;;;;;;;;;5094895;28;20225;-58
2022/05/05 08:58:07;;;;;;;8.97;4.00;;;;;;;;;;5094763;28;20761;-56
2022/05/05 09:00:33;;;;;;;6.97;3.23;;;;;;;;;;5094475;28;20535;-56
2022/05/05 09:03:00;;;;;;;4.83;3.37;;;;;;;;;;5094800;28;20204;-56
2022/05/05 09:05:45;;;;;;;6.20;3.50;;;;;;;;;;5094745;28;20247;-56
2022/05/05 09:08:11;;;;;;;4.83;3.30;;;;;;;;;;5094755;28;20185;-57
2022/05/05 09:10:42;;;;;;;5.23;3.10;;;;;;;;;;5094586;28;20252;-56
2022/05/05 09:13:08;;;;;;;5.90;2.80;;;;;;;;;;5094692;28;20193;-56
2022/05/05 09:15:34;;;;;;;5.63;3.37;;;;;;;;;;5094367;28;20291;-57
2022/05/05 09:18:14;;;;;;;7.10;3.17;;;;;;;;;;5094529;28;20201;-56
2022/05/05 09:20:41;;;;;;;5.37;3.23;;;;;;;;;;5094582;28;20279;-57
2022/05/05 09:23:08;;;;;;;5.53;3.10;;;;;;;;;;5094386;28;20213;-57
2022/05/05 09:25:44;;;;;;;5.97;3.17;;;;;;;;;;5094454;28;20230;-57
2022/05/05 09:28:15;;;;;;;4.77;3.10;;;;;;;;;;5094497;28;20210;-58
2022/05/05 09:30:45;;;;;;;6.80;3.47;;;;;;;;;;5094386;28;20676;-58
2022/05/05 09:33:11;;;;;;;4.53;2.90;;;;;;;;;;5094226;28;20195;-57
2022/05/05 09:35:38;;;;;;;3.33;2.30;;;;;;;;;;5094420;28;20194;-57
2022/05/05 09:38:05;;;;;;;3.50;2.50;;;;;;;;;;5094179;28;20559;-58
2022/05/05 09:40:31;;;;;;;6.07;2.70;;;;;;;;;;5094152;28;20205;-58
2022/05/05 09:42:57;;;;;;;4.30;2.90;;;;;;;;;;5094385;28;20224;-56
2022/05/05 09:45:25;;;;;;;3.67;2.20;;;;;;;;;;5093935;28;20827;-57
2022/05/05 09:47:53;;;;;;;6.40;2.40;;;;;;;;;;5094273;28;20202;-57
2022/05/05 09:50:20;;;;;;;4.67;2.53;;;;;;;;;;5093979;28;20657;-57
2022/05/05 09:58:21;;;;;;;5.43;2.33;;;;;;;;;;5093879;28;20198;-57
2022/05/05 10:01:00;;;;;;;5.00;2.43;;;;;;;;;;5093812;28;20203;-58
2022/05/05 10:06:31;;;;;;;4.40;2.00;;;;;;;;;;5093650;28;20344;-56
2022/05/05 10:09:00;;;;;;;4.73;2.00;;;;;;;;;;5090194;28;20236;-58
2022/05/05 10:11:26;;;;;;;4.13;2.17;;;;;;;;;;5092560;28;20391;-57
2022/05/05 10:13:52;;;;;;;4.47;2.23;;;;;;;;;;5092844;28;20604;-57
2022/05/05 10:16:19;;;;;;;4.90;1.93;;;;;;;;;;5092405;28;20326;-57
2022/05/05 10:18:45;;;;;;;5.10;1.93;;;;;;;;;;5092756;28;20219;-57
2022/05/05 10:21:15;;;;;;;4.40;1.90;;;;;;;;;;5092442;28;20285;-57
2022/05/05 10:23:48;;;;;;;3.93;1.80;;;;;;;;;;5092457;28;20201;-57
2022/05/05 10:26:21;;;;;;;4.03;1.90;;;;;;;;;;5092974;28;20234;-58
2022/05/05 10:28:50;;;;;;;4.57;1.60;;;;;;;;;;5092847;28;20196;-57
2022/05/05 10:31:31;;;;;;;5.80;1.90;;;;;;;;;;5093313;28;20195;-57
2022/05/05 10:34:00;;;;;;;1.73;1.47;;;;;;;;;;5093042;28;20279;-57
2022/05/05 10:36:27;;;;;;;2.47;1.43;;;;;;;;;;5093001;28;20192;-58
2022/05/05 10:38:53;;;;;;;2.30;1.30;;;;;;;;;;5093015;28;20196;-57
2022/05/05 10:41:36;;;;;;;2.63;1.40;;;;;;;;;;5092805;28;20736;-57
2022/05/05 10:44:22;;;;;;;4.27;1.73;;;;;;;;;;5093053;28;20204;-58
2022/05/05 10:46:55;;;;;;;3.63;1.70;;;;;;;;;;5093026;28;20236;-57
2022/05/05 10:49:40;;;;;;;1.93;1.50;;;;;;;;;;5093007;28;20253;-58
2022/05/05 10:52:21;;;;;;;3.83;1.77;;;;;;;;;;5092998;28;20188;-58
2022/05/05 10:54:47;;;;;;;5.30;1.37;;;;;;;;;;5092718;28;20353;-58
2022/05/05 10:57:32;;;;;;;2.33;1.60;;;;;;;;;;5092835;28;20684;-58
2022/05/05 11:00:09;;;;;;;2.73;1.30;;;;;;;;;;5092890;28;20188;-59
2022/05/05 11:02:36;;;;;;;5.77;1.50;;;;;;;;;;5092807;28;20226;-59
2022/05/05 11:05:20;;;;;;;3.67;1.70;;;;;;;;;;5092632;28;20204;-58
2022/05/05 11:07:49;;;;;;;4.43;1.60;;;;;;;;;;5092823;28;20187;-58
2022/05/05 11:10:30;;;;;;;3.90;1.80;;;;;;;;;;5092577;28;20548;-58
2022/05/05 11:12:56;;;;;;;2.57;1.53;;;;;;;;;;5092333;28;20659;-57
2022/05/05 11:24:11;;;;;;;3.77;1.60;;;;;;;;;;5029734;28;20624;-58
2022/05/05 11:26:37;;;;;;;3.83;1.70;;;;;;;;;;5078960;28;20232;-57
2022/05/05 11:29:03;;;;;;;7.10;1.87;;;;;;;;;;5092102;28;20197;-58
2022/05/05 11:31:31;;;;;;;3.67;1.70;;;;;;;;;;5092118;28;20201;-57
2022/05/05 11:33:57;;;;;;;1.90;1.47;;;;;;;;;;5091652;28;20209;-58
2022/05/05 11:36:27;;;;;;;3.57;1.77;;;;;;;;;;5089772;28;20255;-58
2022/05/05 11:38:53;;;;;;;4.13;1.60;;;;;;;;;;5092168;28;20300;-57
2022/05/05 11:41:20;;;;;;;3.53;1.50;;;;;;;;;;5091836;28;20287;-58
2022/05/05 11:46:32;;;;;;;3.20;1.50;;;;;;;;;;5092153;28;20596;-58
2022/05/05 11:48:58;;;;;;;5.30;1.80;;;;;;;;;;5092297;28;20198;-58
2022/05/05 11:51:25;;;;;;;1.93;1.50;;;;;;;;;;5092032;28;20271;-58
2022/05/05 11:53:59;;;;;;;1.93;1.57;;;;;;;;;;5092149;28;20298;-57
2022/05/05 11:56:25;;;;;;;3.57;1.80;;;;;;;;;;5091941;28;20627;-58
2022/05/05 12:01:38;;;;;;;2.43;1.60;;;;;;;;;;5092022;28;20286;-58
2022/05/05 12:04:12;;;;;;;2.87;1.70;;;;;;;;;;5091925;28;20248;-58
2022/05/05 12:06:39;;;;;;;3.70;1.80;;;;;;;;;;5091940;28;20225;-58
2022/05/05 12:09:06;;;;;;;2.27;1.70;;;;;;;;;;5091852;28;20376;-57
2022/05/05 12:11:33;;;;;;;3.00;1.70;;;;;;;;;;5091840;28;20259;-58
2022/05/05 12:13:59;;;;;;;2.73;1.70;;;;;;;;;;5091874;28;20194;-57
2022/05/05 12:16:30;;;;;;;4.43;1.73;;;;;;;;;;5091382;28;20730;-58
2022/05/05 12:18:57;;;;;;;3.40;1.30;;;;;;;;;;5091813;28;20550;-58
2022/05/05 12:21:24;;;;;;;1.93;1.47;;;;;;;;;;5091604;28;20206;-58
2022/05/05 12:23:55;;;;;;;3.10;1.40;;;;;;;;;;5091499;28;20210;-56
2022/05/05 12:26:28;;;;;;;2.43;1.40;;;;;;;;;;5091528;28;20226;-55
2022/05/05 12:28:54;;;;;;;1.60;1.40;;;;;;;;;;5091383;28;20256;-55
2022/05/05 12:31:21;;;;;;;4.07;1.40;;;;;;;;;;5091348;28;20199;-56
2022/05/05 12:33:48;;;;;;;3.37;1.60;;;;;;;;;;5091308;28;20197;-57
2022/05/05 12:36:16;;;;;;;3.27;1.53;;;;;;;;;;5089538;28;20250;-56
2022/05/05 12:38:43;;;;;;;4.73;1.63;;;;;;;;;;5091327;28;20206;-55
2022/05/05 12:41:09;;;;;;;2.27;1.47;;;;;;;;;;5090978;28;20240;-56
2022/05/05 12:43:35;;;;;;;3.10;1.80;;;;;;;;;;5091077;28;20549;-55
2022/05/05 12:46:02;;;;;;;3.27;1.60;;;;;;;;;;5091757;28;20222;-55
2022/05/05 12:48:28;;;;;;;2.93;1.60;;;;;;;;;;5094736;28;20270;-55
2022/05/05 12:50:54;;;;;;;1.90;1.47;;;;;;;;;;5094769;28;20684;-55
2022/05/05 13:01:43;;;;;;;2.67;1.77;;;;;;;;;;5094668;28;20247;-56
2022/05/05 13:04:14;;;;;;;4.07;1.67;;;;;;;;;;5094266;28;20202;-56
2022/05/05 13:06:41;;;;;;;6.17;1.80;;;;;;;;;;5094663;28;20238;-55
2022/05/05 13:09:11;;;;;;;2.50;1.40;;;;;;;;;;5094308;28;20684;-55
2022/05/05 13:11:37;;;;;;;3.83;1.60;;;;;;;;;;5094904;28;20202;-55
2022/05/05 13:14:04;;;;;;;1.73;1.40;;;;;;;;;;5094877;28;20206;-55
2022/05/05 13:16:30;;;;;;;2.90;1.67;;;;;;;;;;5094546;28;20238;-55
2022/05/05 13:18:57;;;;;;;3.60;1.60;;;;;;;;;;5094759;28;20202;-55
2022/05/05 13:21:23;;;;;;;2.50;1.80;;;;;;;;;;5094472;28;20274;-55
2022/05/05 13:23:49;;;;;;;2.93;1.50;;;;;;;;;;5094408;28;20213;-55
2022/05/05 13:26:17;;;;;;;2.53;1.43;;;;;;;;;;5094217;28;20230;-55
2022/05/05 13:28:43;;;;;;;3.20;1.70;;;;;;;;;;5092615;28;20199;-55
2022/05/05 13:31:09;;;;;;;3.63;1.70;;;;;;;;;;5094298;28;20202;-55
2022/05/05 13:33:35;;;;;;;2.30;1.50;;;;;;;;;;5093994;28;20195;-55
2022/05/05 13:36:01;;;;;;;2.07;1.70;;;;;;;;;;5094296;28;20197;-55
2022/05/05 13:38:27;;;;;;;2.93;1.80;;;;;;;;;;5094173;28;20198;-55
2022/05/05 13:40:55;;;;;;;8.17;2.00;;;;;;;;;;5092878;28;20194;-55
2022/05/05 13:43:23;;;;;;;4.13;1.67;;;;;;;;;;5094000;28;20203;-56
2022/05/05 13:45:49;;;;;;;3.70;1.70;;;;;;;;;;5093897;28;20313;-56
2022/05/05 13:48:15;;;;;;;3.13;1.63;;;;;;;;;;5093962;28;20198;-55
2022/05/05 13:50:41;;;;;;;2.80;1.70;;;;;;;;;;5094027;28;20194;-56
2022/05/05 13:53:07;;;;;;;2.90;1.97;;;;;;;;;;5094118;28;20202;-56
2022/05/05 13:55:34;;;;;;;5.40;1.83;;;;;;;;;;5093826;28;20197;-55
2022/05/05 13:58:00;;;;;;;2.40;1.80;;;;;;;;;;5093028;28;20272;-55
2022/05/05 14:00:28;;;;;;;2.03;1.60;;;;;;;;;;5093771;28;20555;-56
2022/05/05 14:02:54;;;;;;;2.87;1.90;;;;;;;;;;5093944;28;20288;-54
2022/05/05 14:05:20;;;;;;;3.63;1.93;;;;;;;;;;5093641;28;20218;-56
2022/05/05 14:13:15;;;;;;;5.10;1.80;;;;;;;;;;5093648;28;20197;-56
2022/05/05 14:15:43;;;;;;;2.63;1.67;;;;;;;;;;5093395;28;20234;-55
2022/05/05 14:18:09;;;;;;;3.63;2.30;;;;;;;;;;5093397;28;20202;-55
2022/05/05 14:20:35;;;;;;;4.77;1.97;;;;;;;;;;5093439;28;20195;-55
2022/05/05 14:23:01;;;;;;;2.07;1.60;;;;;;;;;;5093184;28;20652;-55
2022/05/05 14:25:28;;;;;;;3.37;1.90;;;;;;;;;;5092757;28;20233;-54
2022/05/05 14:27:54;;;;;;;4.50;1.90;;;;;;;;;;5093217;28;20226;-53
2022/05/05 14:30:20;;;;;;;4.90;2.10;;;;;;;;;;5093162;28;20207;-54
2022/05/05 14:32:48;;;;;;;3.97;1.80;;;;;;;;;;5093095;28;20732;-54
2022/05/05 14:35:14;;;;;;;4.33;1.80;;;;;;;;;;5093308;28;20223;-54
2022/05/05 14:37:40;;;;;;;4.63;1.80;;;;;;;;;;5093313;28;20244;-55
2022/05/05 14:40:07;;;;;;;3.50;1.80;;;;;;;;;;5093108;28;20683;-54
2022/05/05 14:42:33;;;;;;;4.20;1.80;;;;;;;;;;5091227;28;20205;-55
2022/05/05 14:44:59;;;;;;;2.53;1.83;;;;;;;;;;5093225;28;20285;-54
2022/05/05 14:47:25;;;;;;;4.43;1.93;;;;;;;;;;5092847;28;20243;-54
2022/05/05 14:49:54;;;;;;;2.67;1.70;;;;;;;;;;5092882;28;20246;-55
2022/05/05 14:52:21;;;;;;;11.97;1.70;;;;;;;;;;5092737;28;20218;-55
2022/05/05 14:54:47;;;;;;;3.27;1.80;;;;;;;;;;5092698;28;20566;-55
2022/05/05 14:57:13;;;;;;;2.80;1.70;;;;;;;;;;5092401;28;20188;-55
2022/05/05 14:59:39;;;;;;;2.23;1.57;;;;;;;;;;5092685;28;20660;-55
2022/05/05 15:02:05;;;;;;;2.97;1.80;;;;;;;;;;5092550;28;20228;-55
2022/05/05 15:04:31;;;;;;;4.50;1.60;;;;;;;;;;5092632;28;20236;-55
2022/05/05 15:06:59;;;;;;;3.97;2.23;;;;;;;;;;5092437;28;20707;-55
2022/05/05 15:09:25;;;;;;;2.00;1.73;;;;;;;;;;5092222;28;20724;-53
2022/05/05 15:11:52;;;;;;;3.17;1.97;;;;;;;;;;5092576;28;20568;-53
2022/05/05 15:14:21;;;;;;;2.17;1.77;;;;;;;;;;5092331;28;20214;-54
2022/05/05 15:16:47;;;;;;;2.47;1.80;;;;;;;;;;5092213;28;20231;-55
2022/05/05 15:19:14;;;;;;;1.40;1.30;;;;;;;;;;5092209;28;20211;-55
2022/05/05 15:21:40;;;;;;;3.13;1.40;;;;;;;;;;5091928;28;20560;-54
2022/05/05 15:24:11;;;;;;;1.70;1.50;;;;;;;;;;5092225;28;20216;-53
2022/05/05 15:26:37;;;;;;;2.33;1.40;;;;;;;;;;5092110;28;20664;-54
2022/05/05 15:29:04;;;;;;;2.00;1.80;;;;;;;;;;5092131;28;20227;-54
2022/05/05 15:31:30;;;;;;;2.37;1.70;;;;;;;;;;5092133;28;20286;-54
2022/05/05 15:33:56;;;;;;;3.30;1.70;;;;;;;;;;5091952;28;20219;-55
2022/05/05 15:36:22;;;;;;;2.93;1.87;;;;;;;;;;5091894;28;20189;-54
2022/05/05 15:38:50;;;;;;;4.27;2.20;;;;;;;;;;5092053;28;20196;-54
2022/05/05 15:41:17;;;;;;;1.87;1.50;;;;;;;;;;5092157;28;20576;-52